Speed, Missouri
Current Conditions -  °F | °C
As of 2:35 PM on Friday 21 Nov 2014 (Local Time) from KVER Reporting Station
Overcast Overcast  
Wind Chill: 37°   Ceiling: 2400
Heat Index: 42°   Visibility: 10mi
Dew Point: 23°   Wind: 9mph
Humidity: 45%   Direction: 120°ESE
Pressure: 30.2"   Gusts: NA
Location:  38.8814°N, 92.7602°W
Report Text: KVER 212035Z AUTO 12008KT 10SM OVC024 06/M05 A3020 RMK AO2 T00581052
Loading
Personal Weather Stations






























Interactive Weather Map New forecast layout! Learn more

10-Day Weather Forecast

Advertisements
Track Severe Weather on mobile